createdAt,value
2019-04-05T00:00:36.926Z,14.36
2019-04-05T00:01:36.909Z,14.39
2019-04-05T00:02:36.898Z,14.33
2019-04-05T00:03:36.937Z,14.33
2019-04-05T00:04:36.888Z,14.36
2019-04-05T00:05:36.871Z,14.35
2019-04-05T00:06:36.865Z,14.27
2019-04-05T00:07:36.850Z,14.28
2019-04-05T00:08:36.861Z,14.32
2019-04-05T00:09:36.827Z,14.29
2019-04-05T00:10:36.821Z,14.35
2019-04-05T00:11:36.808Z,14.33
2019-04-05T00:12:36.813Z,14.27
2019-04-05T00:13:36.821Z,14.25
2019-04-05T00:14:36.778Z,14.28
2019-04-05T00:15:38.122Z,14.21
2019-04-05T00:16:36.749Z,14.14
2019-04-05T00:17:36.752Z,14.10
2019-04-05T00:18:36.733Z,14.10
2019-04-05T00:19:36.742Z,14.18
2019-04-05T00:20:36.701Z,14.15
2019-04-05T00:21:36.700Z,14.20
2019-04-05T00:22:36.685Z,14.21
2019-04-05T00:23:36.677Z,14.17
2019-04-05T00:24:36.686Z,14.15
2019-04-05T00:25:36.731Z,14.15
2019-04-05T00:26:36.706Z,14.21
2019-04-05T00:27:36.642Z,14.15
2019-04-05T00:28:36.628Z,14.20
2019-04-05T00:29:36.633Z,14.10
2019-04-05T00:30:36.601Z,14.07
2019-04-05T00:31:36.608Z,14.06
2019-04-05T00:32:36.583Z,14.12
2019-04-05T00:33:36.560Z,14.12
2019-04-05T00:34:36.580Z,14.04
2019-04-05T00:35:36.537Z,14.02
2019-04-05T00:36:36.559Z,14.04
2019-04-05T00:37:36.520Z,14.10
2019-04-05T00:38:36.509Z,14.06
2019-04-05T00:39:36.495Z,14.03
2019-04-05T00:40:36.513Z,14.12
2019-04-05T00:41:36.497Z,14.06
2019-04-05T00:42:36.462Z,14.02
2019-04-05T00:43:36.453Z,14.07
2019-04-05T00:44:36.447Z,14.03
2019-04-05T00:45:36.433Z,13.97
2019-04-05T00:46:36.445Z,13.99
2019-04-05T00:47:36.410Z,13.99
2019-04-05T00:48:36.412Z,13.91
2019-04-05T00:49:36.386Z,13.95
2019-04-05T00:50:36.395Z,13.87
2019-04-05T00:51:36.366Z,13.82
2019-04-05T00:52:36.357Z,13.85
2019-04-05T00:53:36.339Z,13.89
2019-04-05T00:54:36.332Z,13.88
2019-04-05T00:55:36.347Z,13.92
2019-04-05T00:56:36.312Z,13.91
2019-04-05T00:57:36.301Z,13.92
2019-04-05T00:58:36.290Z,13.87
2019-04-05T00:59:36.282Z,13.92
2019-04-05T01:00:36.299Z,13.88
2019-04-05T01:01:36.271Z,13.87
2019-04-05T01:02:36.250Z,13.89
2019-04-05T01:03:36.244Z,13.88
2019-04-05T01:04:36.224Z,13.85
2019-04-05T01:05:36.288Z,13.88
2019-04-05T01:06:36.218Z,13.88
2019-04-05T01:07:36.189Z,13.81
2019-04-05T01:08:36.172Z,13.88
2019-04-05T01:09:36.167Z,13.82
2019-04-05T01:10:36.157Z,13.79
2019-04-05T01:11:36.195Z,13.82
2019-04-05T01:12:36.130Z,13.84
2019-04-05T01:13:36.147Z,13.84
2019-04-05T01:14:36.106Z,13.81
2019-04-05T01:15:41.085Z,13.70
2019-04-05T01:16:37.088Z,13.84
2019-04-05T01:17:36.122Z,13.66
2019-04-05T01:18:36.071Z,13.70
2019-04-05T01:19:36.064Z,13.81
2019-04-05T01:20:36.047Z,13.70
2019-04-05T01:21:36.033Z,13.69
2019-04-05T01:22:36.027Z,13.69
2019-04-05T01:23:36.058Z,13.75
2019-04-05T01:24:36.006Z,13.67
2019-04-05T01:25:35.986Z,13.70
2019-04-05T01:26:35.976Z,13.71
2019-04-05T01:27:35.971Z,13.67
2019-04-05T01:28:35.978Z,13.73
2019-04-05T01:29:35.958Z,13.73
2019-04-05T01:30:35.930Z,13.70
2019-04-05T01:31:35.928Z,13.62
2019-04-05T01:32:35.914Z,13.62
2019-04-05T01:33:35.939Z,13.60
2019-04-05T01:34:35.899Z,13.57
2019-04-05T01:35:35.883Z,13.59
2019-04-05T01:36:35.874Z,13.60
2019-04-05T01:37:35.858Z,13.64
2019-04-05T01:38:35.876Z,13.64
2019-04-05T01:39:35.839Z,13.57
2019-04-05T01:40:35.851Z,13.59
2019-04-05T01:41:35.813Z,13.57
2019-04-05T01:42:35.805Z,13.60
2019-04-05T01:43:35.797Z,13.55
2019-04-05T01:44:35.802Z,13.60
2019-04-05T01:45:35.772Z,13.66
2019-04-05T01:46:35.759Z,13.60
2019-04-05T01:47:35.752Z,13.60
2019-04-05T01:48:35.743Z,13.60
2019-04-05T01:49:35.770Z,13.71
2019-04-05T01:50:35.716Z,13.64
2019-04-05T01:51:35.702Z,13.62
2019-04-05T01:52:35.747Z,13.62
2019-04-05T01:53:35.684Z,13.55
2019-04-05T01:54:35.669Z,13.60
2019-04-05T01:55:35.686Z,13.57
2019-04-05T01:56:35.669Z,13.60
2019-04-05T01:57:35.647Z,13.57
2019-04-05T01:58:35.662Z,13.52
2019-04-05T01:59:35.614Z,13.60
2019-04-05T02:00:35.645Z,13.60
2019-04-05T02:01:35.615Z,13.54
2019-04-05T02:02:35.592Z,13.52
2019-04-05T02:03:35.572Z,13.55
2019-04-05T02:04:35.556Z,13.51
2019-04-05T02:05:35.554Z,13.57
2019-04-05T02:06:35.563Z,13.52
2019-04-05T02:07:35.522Z,13.48
2019-04-05T02:08:35.515Z,13.48
2019-04-05T02:09:35.508Z,13.52
2019-04-05T02:10:35.510Z,13.51
2019-04-05T02:11:35.489Z,13.48
2019-04-05T02:12:35.464Z,13.48
2019-04-05T02:13:35.463Z,13.44
2019-04-05T02:14:35.445Z,13.46
2019-04-05T02:15:35.478Z,13.33
2019-04-05T02:16:35.452Z,13.38
2019-04-05T02:17:36.108Z,13.49
2019-04-05T02:18:35.402Z,13.42
2019-04-05T02:19:35.400Z,13.42
2019-04-05T02:20:35.395Z,13.41
2019-04-05T02:21:35.411Z,13.54
2019-04-05T02:22:35.355Z,13.39
2019-04-05T02:23:35.347Z,13.33
2019-04-05T02:24:35.336Z,13.42
2019-04-05T02:25:35.328Z,13.32
2019-04-05T02:26:35.314Z,13.48
2019-04-05T02:27:35.332Z,13.46
2019-04-05T02:28:35.296Z,13.36
2019-04-05T02:29:35.279Z,13.33
2019-04-05T02:30:35.273Z,13.32
2019-04-05T02:31:35.266Z,13.33
2019-04-05T02:32:35.286Z,13.32
2019-04-05T02:33:35.236Z,13.33
2019-04-05T02:34:35.289Z,13.26
2019-04-05T02:35:38.911Z,13.30
2019-04-05T02:36:35.206Z,13.26
2019-04-05T02:37:35.215Z,13.22
2019-04-05T02:38:35.191Z,13.20
2019-04-05T02:39:35.170Z,13.11
2019-04-05T02:40:35.171Z,13.17
2019-04-05T02:41:35.145Z,13.12
2019-04-05T02:42:35.161Z,13.10
2019-04-05T02:43:35.131Z,13.14
2019-04-05T02:44:35.123Z,13.10
2019-04-05T02:45:35.106Z,13.11
2019-04-05T02:46:35.092Z,13.12
2019-04-05T02:47:35.140Z,13.10
2019-04-05T02:48:35.071Z,13.07
2019-04-05T02:49:35.063Z,13.05
2019-04-05T02:50:35.059Z,13.10
2019-04-05T02:51:35.053Z,13.00
2019-04-05T02:52:35.026Z,13.07
2019-04-05T02:53:35.042Z,13.12
2019-04-05T02:54:35.020Z,13.05
2019-04-05T02:55:35.004Z,13.11
2019-04-05T02:56:34.977Z,13.00
2019-04-05T02:57:34.977Z,13.00
2019-04-05T02:58:35.001Z,13.05
2019-04-05T02:59:34.978Z,13.07
2019-04-05T03:00:34.965Z,13.01
2019-04-05T03:01:34.945Z,13.00
2019-04-05T03:02:34.928Z,12.89
2019-04-05T03:03:34.926Z,12.92
2019-04-05T03:04:34.929Z,12.93
2019-04-05T03:05:34.889Z,12.89
2019-04-05T03:06:34.895Z,12.89
2019-04-05T03:07:34.858Z,12.93
2019-04-05T03:08:34.849Z,12.86
2019-04-05T03:09:34.852Z,12.89
2019-04-05T03:10:34.828Z,12.93
2019-04-05T03:11:34.812Z,12.89
2019-04-05T03:12:34.802Z,12.87
2019-04-05T03:13:34.815Z,12.86
2019-04-05T03:14:34.804Z,12.90
2019-04-05T03:15:34.839Z,12.85
2019-04-05T03:16:40.968Z,12.85
2019-04-05T03:17:35.745Z,12.83
2019-04-05T03:18:34.751Z,12.79
2019-04-05T03:19:34.766Z,12.74
2019-04-05T03:20:34.741Z,12.82
2019-04-05T03:21:34.699Z,12.75
2019-04-05T03:22:34.694Z,12.67
2019-04-05T03:23:34.691Z,12.75
2019-04-05T03:24:34.686Z,12.77
2019-04-05T03:25:34.697Z,12.74
2019-04-05T03:26:34.664Z,12.70
2019-04-05T03:27:34.644Z,12.75
2019-04-05T03:28:34.629Z,12.74
2019-04-05T03:29:34.608Z,12.74
2019-04-05T03:30:34.649Z,12.68
2019-04-05T03:31:34.593Z,12.71
2019-04-05T03:32:34.584Z,12.77
2019-04-05T03:33:34.565Z,12.74
2019-04-05T03:34:34.594Z,12.65
2019-04-05T03:35:34.588Z,12.67
2019-04-05T03:36:34.525Z,12.65
2019-04-05T03:37:34.536Z,12.65
2019-04-05T03:38:34.518Z,12.62
2019-04-05T03:39:34.510Z,12.64
2019-04-05T03:40:34.540Z,12.67
2019-04-05T03:41:34.472Z,12.67
2019-04-05T03:42:34.459Z,12.65
2019-04-05T03:43:34.444Z,12.68
2019-04-05T03:44:34.450Z,12.64
2019-04-05T03:45:34.436Z,12.64
2019-04-05T03:46:34.455Z,12.56
2019-04-05T03:47:34.408Z,12.60
2019-04-05T03:48:34.396Z,12.68
2019-04-05T03:49:34.382Z,12.54
2019-04-05T03:50:34.374Z,12.54
2019-04-05T03:51:34.390Z,12.59
2019-04-05T03:52:34.425Z,12.53
2019-04-05T03:53:34.332Z,12.45
2019-04-05T03:54:34.326Z,12.41
2019-04-05T03:55:34.310Z,12.45
2019-04-05T03:56:37.813Z,12.46
2019-04-05T03:57:34.298Z,12.45
2019-04-05T03:58:34.284Z,12.47
2019-04-05T03:59:34.293Z,12.45
2019-04-05T04:00:34.274Z,12.41
2019-04-05T04:01:34.243Z,12.42
2019-04-05T04:02:34.297Z,12.35
2019-04-05T04:03:34.256Z,12.34
2019-04-05T04:04:34.215Z,12.42
2019-04-05T04:05:34.211Z,12.34
2019-04-05T04:06:34.190Z,12.31
2019-04-05T04:07:34.178Z,12.39
2019-04-05T04:08:34.200Z,12.39
2019-04-05T04:09:34.156Z,12.29
2019-04-05T04:10:34.142Z,12.34
2019-04-05T04:11:34.132Z,12.27
2019-04-05T04:12:34.138Z,12.34
2019-04-05T04:13:34.158Z,12.34
2019-04-05T04:14:34.101Z,12.35
2019-04-05T04:15:34.144Z,12.23
2019-04-05T04:16:34.077Z,12.27
2019-04-05T04:17:34.069Z,12.35
2019-04-05T04:18:34.085Z,12.35
2019-04-05T04:19:34.041Z,12.29
2019-04-05T04:20:34.040Z,12.27
2019-04-05T04:21:34.015Z,12.24
2019-04-05T04:22:34.012Z,12.29
2019-04-05T04:23:34.030Z,12.29
2019-04-05T04:24:33.990Z,12.31
2019-04-05T04:25:33.987Z,12.32
2019-04-05T04:26:33.974Z,12.23
2019-04-05T04:27:33.947Z,12.29
2019-04-05T04:28:33.960Z,12.24
2019-04-05T04:29:33.929Z,12.23
2019-04-05T04:30:33.939Z,12.23
2019-04-05T04:31:33.903Z,12.23
2019-04-05T04:32:33.894Z,12.27
2019-04-05T04:33:33.926Z,12.19
2019-04-05T04:34:33.925Z,12.24
2019-04-05T04:35:33.861Z,12.20
2019-04-05T04:36:33.863Z,12.19
2019-04-05T04:37:33.840Z,12.28
2019-04-05T04:38:33.850Z,12.21
2019-04-05T04:39:33.812Z,12.23
2019-04-05T04:40:33.832Z,12.24
2019-04-05T04:41:33.805Z,12.19
2019-04-05T04:42:33.779Z,12.07
2019-04-05T04:43:33.797Z,12.13
2019-04-05T04:44:33.761Z,12.20
2019-04-05T04:45:33.775Z,12.13
2019-04-05T04:46:33.736Z,12.12
2019-04-05T04:47:33.729Z,12.05
2019-04-05T04:48:33.759Z,12.09
2019-04-05T04:49:33.702Z,12.14
2019-04-05T04:50:33.688Z,12.16
2019-04-05T04:51:33.686Z,12.10
2019-04-05T04:52:33.671Z,12.04
2019-04-05T04:53:33.656Z,11.99
2019-04-05T04:54:33.677Z,12.01
2019-04-05T04:55:33.667Z,11.98
2019-04-05T04:56:33.629Z,11.98
2019-04-05T04:57:33.613Z,12.02
2019-04-05T04:58:33.606Z,12.04
2019-04-05T04:59:33.601Z,11.98
2019-04-05T05:00:33.600Z,12.02
2019-04-05T05:01:33.573Z,12.02
2019-04-05T05:02:33.564Z,11.98
2019-04-05T05:03:33.547Z,11.91
2019-04-05T05:04:33.540Z,11.90
2019-04-05T05:05:33.553Z,11.96
2019-04-05T05:06:33.538Z,11.91
2019-04-05T05:07:33.495Z,11.96
2019-04-05T05:08:33.485Z,11.91
2019-04-05T05:09:33.494Z,11.88
2019-04-05T05:10:33.530Z,11.86
2019-04-05T05:11:33.488Z,11.86
2019-04-05T05:12:33.452Z,11.91
2019-04-05T05:13:33.435Z,11.94
2019-04-05T05:14:33.417Z,11.88
2019-04-05T05:15:33.411Z,11.94
2019-04-05T05:16:33.426Z,11.91
2019-04-05T05:17:38.694Z,11.96
2019-04-05T05:18:34.379Z,11.94
2019-04-05T05:19:33.369Z,11.94
2019-04-05T05:20:33.351Z,11.96
2019-04-05T05:21:33.414Z,11.91
2019-04-05T05:22:33.388Z,11.91
2019-04-05T05:23:33.406Z,12.10
2019-04-05T05:24:33.329Z,12.02
2019-04-05T05:25:33.306Z,11.94
2019-04-05T05:26:33.293Z,11.95
2019-04-05T05:27:33.339Z,11.99
2019-04-05T05:28:33.265Z,12.04
2019-04-05T05:29:33.248Z,11.96
2019-04-05T05:30:33.246Z,11.94
2019-04-05T05:31:33.232Z,12.02
2019-04-05T05:32:33.221Z,12.01
2019-04-05T05:33:33.238Z,12.05
2019-04-05T05:34:33.196Z,11.99
2019-04-05T05:35:33.200Z,12.02
2019-04-05T05:36:33.182Z,12.07
2019-04-05T05:37:33.216Z,11.96
2019-04-05T05:38:33.157Z,11.90
2019-04-05T05:39:33.177Z,12.02
2019-04-05T05:40:35.016Z,12.02
2019-04-05T05:41:33.114Z,11.99
2019-04-05T05:42:33.111Z,11.99
2019-04-05T05:43:33.093Z,11.99
2019-04-05T05:44:33.120Z,11.99
2019-04-05T05:45:33.079Z,12.04
2019-04-05T05:46:33.064Z,12.05
2019-04-05T05:47:33.087Z,12.07
2019-04-05T05:48:33.051Z,12.14
2019-04-05T05:49:33.024Z,12.05
2019-04-05T05:50:33.063Z,12.09
2019-04-05T05:51:33.002Z,12.10
2019-04-05T05:52:32.999Z,12.10
2019-04-05T05:53:32.984Z,11.99
2019-04-05T05:54:33.046Z,12.10
2019-04-05T05:55:32.962Z,12.09
2019-04-05T05:56:33.035Z,12.01
2019-04-05T05:57:32.941Z,11.99
2019-04-05T05:58:32.934Z,12.02
2019-04-05T05:59:32.923Z,11.96
2019-04-05T06:00:32.928Z,11.98
2019-04-05T06:01:32.893Z,12.01
2019-04-05T06:02:32.910Z,11.96
2019-04-05T06:03:32.877Z,11.95
2019-04-05T06:04:32.887Z,11.98
2019-04-05T06:05:32.850Z,11.95
2019-04-05T06:06:32.833Z,11.94
2019-04-05T06:07:32.828Z,11.94
2019-04-05T06:08:32.820Z,11.90
2019-04-05T06:09:32.812Z,11.79
2019-04-05T06:10:32.817Z,11.78
2019-04-05T06:11:32.782Z,11.79
2019-04-05T06:12:32.765Z,11.73
2019-04-05T06:13:32.768Z,11.83
2019-04-05T06:14:32.744Z,11.75
2019-04-05T06:15:32.791Z,11.76
2019-04-05T06:16:45.546Z,11.79
2019-04-05T06:17:33.714Z,11.83
2019-04-05T06:18:32.697Z,11.79
2019-04-05T06:19:32.687Z,11.82
2019-04-05T06:20:32.698Z,11.83
2019-04-05T06:21:32.716Z,11.90
2019-04-05T06:22:32.674Z,11.90
2019-04-05T06:23:33.951Z,11.91
2019-04-05T06:24:32.635Z,11.90
2019-04-05T06:25:32.621Z,11.80
2019-04-05T06:26:32.657Z,11.85
2019-04-05T06:27:35.355Z,11.82
2019-04-05T06:28:32.605Z,11.79
2019-04-05T06:29:32.574Z,11.73
2019-04-05T06:30:32.563Z,11.80
2019-04-05T06:31:32.594Z,11.70
2019-04-05T06:32:32.589Z,11.76
2019-04-05T06:33:35.648Z,11.72
2019-04-05T06:34:32.530Z,11.60
2019-04-05T06:35:32.517Z,11.64
2019-04-05T06:36:32.514Z,11.52
2019-04-05T06:37:32.492Z,11.54
2019-04-05T06:38:32.527Z,11.52
2019-04-05T06:39:32.489Z,11.60
2019-04-05T06:40:40.552Z,11.61
2019-04-05T06:41:33.442Z,11.72
2019-04-05T06:42:32.432Z,11.69
2019-04-05T06:43:32.425Z,11.70
2019-04-05T06:44:32.441Z,11.73
2019-04-05T06:45:32.407Z,11.69
2019-04-05T06:46:32.392Z,11.72
2019-04-05T06:47:32.380Z,11.60
2019-04-05T06:48:32.361Z,11.58
2019-04-05T06:49:32.380Z,11.40
2019-04-05T06:50:32.343Z,11.40
2019-04-05T06:51:32.346Z,11.35
2019-04-05T06:52:32.314Z,11.32
2019-04-05T06:53:32.307Z,11.25
2019-04-05T06:54:32.320Z,11.25
2019-04-05T06:55:32.285Z,11.19
2019-04-05T06:56:32.286Z,10.96
2019-04-05T06:57:32.293Z,10.92
2019-04-05T06:58:32.252Z,10.73
2019-04-05T06:59:32.269Z,10.68
2019-04-05T07:00:32.227Z,10.76
2019-04-05T07:01:32.217Z,10.82
2019-04-05T07:02:32.211Z,10.84
2019-04-05T07:03:32.190Z,10.78
2019-04-05T07:04:32.239Z,10.92
2019-04-05T07:05:32.168Z,10.78
2019-04-05T07:06:32.157Z,10.71
2019-04-05T07:07:32.160Z,10.63
2019-04-05T07:08:32.158Z,10.68
2019-04-05T07:09:34.136Z,10.67
2019-04-05T07:10:32.140Z,10.70
2019-04-05T07:11:32.106Z,10.76
2019-04-05T07:12:32.135Z,10.73
2019-04-05T07:13:32.282Z,10.56
2019-04-05T07:14:32.078Z,10.41
2019-04-05T07:15:32.090Z,10.26
2019-04-05T07:16:32.048Z,10.40
2019-04-05T07:17:32.038Z,10.44
2019-04-05T07:18:36.045Z,10.47
2019-04-05T07:19:32.017Z,10.45
2019-04-05T07:20:32.081Z,10.33
2019-04-05T07:21:32.021Z,10.32
2019-04-05T07:22:38.978Z,10.08
2019-04-05T07:23:32.984Z,10.08
2019-04-05T07:24:31.955Z,10.17
2019-04-05T07:25:31.949Z,10.22
2019-04-05T07:26:31.982Z,10.36
2019-04-05T07:27:31.926Z,10.33
2019-04-05T07:28:31.922Z,10.34
2019-04-05T07:29:31.904Z,10.18
2019-04-05T07:30:32.712Z,10.04
2019-04-05T07:31:31.892Z,10.07
2019-04-05T07:32:31.896Z,10.02
2019-04-05T07:33:31.859Z,9.97
2019-04-05T07:34:31.847Z,9.86
2019-04-05T07:35:33.754Z,9.89
2019-04-05T07:36:31.878Z,9.94
2019-04-05T07:37:31.814Z,10.07
2019-04-05T07:38:31.814Z,10.18
2019-04-05T07:39:31.786Z,10.22
2019-04-05T07:40:31.776Z,10.20
2019-04-05T07:41:32.027Z,10.25
2019-04-05T07:42:31.825Z,10.15
2019-04-05T07:43:31.747Z,10.02
2019-04-05T07:44:31.797Z,10.01
2019-04-05T07:45:31.725Z,9.91
2019-04-05T07:46:31.709Z,9.86
2019-04-05T07:47:31.702Z,9.84
2019-04-05T07:48:43.757Z,9.87
2019-04-05T07:49:32.705Z,9.93
2019-04-05T07:50:31.669Z,9.90
2019-04-05T07:51:31.656Z,9.94
2019-04-05T07:52:31.647Z,9.99
2019-04-05T07:53:31.673Z,10.08
2019-04-05T07:54:31.655Z,10.07
2019-04-05T07:55:31.607Z,10.17
2019-04-05T07:56:31.596Z,10.25
2019-04-05T07:57:31.616Z,10.33
2019-04-05T07:58:31.587Z,10.48
2019-04-05T07:59:31.566Z,10.41
2019-04-05T08:00:31.549Z,10.42
2019-04-05T08:01:31.554Z,10.44
2019-04-05T08:02:31.585Z,10.44
2019-04-05T08:03:31.526Z,10.44
2019-04-05T08:04:31.517Z,10.42
2019-04-05T08:05:31.511Z,10.34
2019-04-05T08:06:31.482Z,10.44
2019-04-05T08:07:31.485Z,10.44
2019-04-05T08:08:31.492Z,10.40
2019-04-05T08:09:31.457Z,10.36
2019-04-05T08:10:31.443Z,10.45
2019-04-05T08:11:31.427Z,10.44
2019-04-05T08:12:31.416Z,10.44
2019-04-05T08:13:31.432Z,10.64
2019-04-05T08:14:31.430Z,10.51
2019-04-05T08:15:31.393Z,10.53
2019-04-05T08:16:31.394Z,10.41
2019-04-05T08:17:31.376Z,10.17
2019-04-05T08:18:31.358Z,10.20
2019-04-05T08:19:31.367Z,10.25
2019-04-05T08:20:31.331Z,10.20
2019-04-05T08:21:31.335Z,10.36
2019-04-05T08:22:32.411Z,10.41
2019-04-05T08:23:31.296Z,10.47
2019-04-05T08:24:31.311Z,10.30
2019-04-05T08:25:31.276Z,10.22
2019-04-05T08:26:31.258Z,10.27
2019-04-05T08:27:31.252Z,10.22
2019-04-05T08:28:31.244Z,10.22
2019-04-05T08:29:31.265Z,10.36
2019-04-05T08:30:31.291Z,10.42
2019-04-05T08:31:31.201Z,10.44
2019-04-05T08:32:31.194Z,10.47
2019-04-05T08:33:31.183Z,10.47
2019-04-05T08:34:31.178Z,10.45
2019-04-05T08:35:31.160Z,10.56
2019-04-05T08:36:32.705Z,10.59
2019-04-05T08:37:31.152Z,10.71
2019-04-05T08:38:31.128Z,10.76
2019-04-05T08:39:31.134Z,10.68
2019-04-05T08:40:31.181Z,10.66
2019-04-05T08:41:31.091Z,10.66
2019-04-05T08:42:31.083Z,10.44
2019-04-05T08:43:31.072Z,10.44
2019-04-05T08:44:31.073Z,10.33
2019-04-05T08:45:31.052Z,10.33
2019-04-05T08:46:31.071Z,10.33
2019-04-05T08:47:31.051Z,10.29
2019-04-05T08:48:31.015Z,10.25
2019-04-05T08:49:31.005Z,10.20
2019-04-05T08:50:31.006Z,10.08
2019-04-05T08:51:31.008Z,10.09
2019-04-05T08:52:30.995Z,10.12
2019-04-05T08:53:31.015Z,10.23
2019-04-05T08:54:33.184Z,10.29
2019-04-05T08:55:30.934Z,10.30
2019-04-05T08:56:30.945Z,10.40
2019-04-05T08:57:30.925Z,10.48
2019-04-05T08:58:33.608Z,10.59
2019-04-05T08:59:30.897Z,10.56
2019-04-05T09:00:30.882Z,10.63
2019-04-05T09:01:30.899Z,10.44
2019-04-05T09:02:30.905Z,10.33
2019-04-05T09:03:30.877Z,10.29
2019-04-05T09:04:30.842Z,10.41
2019-04-05T09:05:33.387Z,10.61
2019-04-05T09:06:30.816Z,10.66
2019-04-05T09:07:30.796Z,10.74
2019-04-05T09:08:30.788Z,10.78
2019-04-05T09:09:30.807Z,10.81
2019-04-05T09:10:30.767Z,10.84
2019-04-05T09:11:30.758Z,10.76
2019-04-05T09:12:30.740Z,10.82
2019-04-05T09:13:30.731Z,10.81
2019-04-05T09:14:30.765Z,10.81
2019-04-05T09:15:30.776Z,10.84
2019-04-05T09:16:30.716Z,10.79
2019-04-05T09:17:30.701Z,10.85
2019-04-05T09:18:30.672Z,10.91
2019-04-05T09:19:30.696Z,10.88
2019-04-05T09:20:30.688Z,10.97
2019-04-05T09:21:30.641Z,11.07
2019-04-05T09:22:30.633Z,11.07
2019-04-05T09:23:30.627Z,11.04
2019-04-05T09:24:30.620Z,11.19
2019-04-05T09:25:30.637Z,11.06
2019-04-05T09:26:30.607Z,11.04
2019-04-05T09:27:30.587Z,10.89
2019-04-05T09:28:30.564Z,10.76
2019-04-05T09:29:30.546Z,10.70
2019-04-05T09:30:30.576Z,10.61
2019-04-05T09:31:30.530Z,10.53
2019-04-05T09:32:30.520Z,10.53
2019-04-05T09:33:30.505Z,10.45
2019-04-05T09:34:30.511Z,10.41
2019-04-05T09:35:30.495Z,10.56
2019-04-05T09:36:30.491Z,10.59
2019-04-05T09:37:30.455Z,10.56
2019-04-05T09:38:30.455Z,10.60
2019-04-05T09:39:30.464Z,10.70
2019-04-05T09:40:30.433Z,10.61
2019-04-05T09:41:30.447Z,10.67
2019-04-05T09:42:30.410Z,10.67
2019-04-05T09:43:30.393Z,10.67
2019-04-05T09:44:30.379Z,10.59
2019-04-05T09:45:30.434Z,10.59
2019-04-05T09:46:30.360Z,10.53
2019-04-05T09:47:30.342Z,10.55
2019-04-05T09:48:30.339Z,10.63
2019-04-05T09:49:36.595Z,10.67
2019-04-05T09:50:31.366Z,10.68
2019-04-05T09:51:30.302Z,10.64
2019-04-05T09:52:30.309Z,10.66
2019-04-05T09:53:30.279Z,10.68
2019-04-05T09:54:30.271Z,10.76
2019-04-05T09:55:30.260Z,10.82
2019-04-05T09:56:30.267Z,10.97
2019-04-05T09:57:30.238Z,10.96
2019-04-05T09:58:30.229Z,11.04
2019-04-05T09:59:30.220Z,11.10
2019-04-05T10:00:30.209Z,11.10
2019-04-05T10:01:30.234Z,11.11
2019-04-05T10:02:31.833Z,10.99
2019-04-05T10:03:30.167Z,11.03
2019-04-05T10:04:31.323Z,10.85
2019-04-05T10:05:30.146Z,10.86
2019-04-05T10:06:30.131Z,10.81
2019-04-05T10:07:30.152Z,10.89
2019-04-05T10:08:30.110Z,10.89
2019-04-05T10:09:30.123Z,10.97
2019-04-05T10:10:30.085Z,11.07
2019-04-05T10:11:30.071Z,11.06
2019-04-05T10:12:30.074Z,10.97
2019-04-05T10:13:30.060Z,11.06
2019-04-05T10:14:30.076Z,11.06
2019-04-05T10:15:30.034Z,11.00
2019-04-05T10:16:30.070Z,10.99
2019-04-05T10:17:30.047Z,10.97
2019-04-05T10:18:29.994Z,11.11
2019-04-05T10:19:29.988Z,11.07
2019-04-05T10:20:30.642Z,11.18
2019-04-05T10:21:29.973Z,11.15
2019-04-05T10:22:29.952Z,11.17
2019-04-05T10:23:29.983Z,11.10
2019-04-05T10:24:32.937Z,11.07
2019-04-05T10:25:29.925Z,11.14
2019-04-05T10:26:29.908Z,11.17
2019-04-05T10:27:29.893Z,11.06
2019-04-05T10:28:29.918Z,11.07
2019-04-05T10:29:30.020Z,11.09
2019-04-05T10:30:29.866Z,11.17
2019-04-05T10:31:29.849Z,11.18
2019-04-05T10:32:29.843Z,11.22
2019-04-05T10:33:29.829Z,11.24
2019-04-05T10:34:29.817Z,11.28
2019-04-05T10:35:29.840Z,11.25
2019-04-05T10:36:29.794Z,11.21
2019-04-05T10:37:29.815Z,11.22
2019-04-05T10:38:29.781Z,11.21
2019-04-05T10:39:29.756Z,11.07
2019-04-05T10:40:29.765Z,10.97
2019-04-05T10:41:29.761Z,11.06
2019-04-05T10:42:29.730Z,11.07
2019-04-05T10:43:29.711Z,11.22
2019-04-05T10:44:29.701Z,11.18
2019-04-05T10:45:29.719Z,11.27
2019-04-05T10:46:29.686Z,11.36
2019-04-05T10:47:29.706Z,11.32
2019-04-05T10:48:29.666Z,11.44
2019-04-05T10:49:29.653Z,11.54
2019-04-05T10:50:29.679Z,11.58
2019-04-05T10:51:29.630Z,11.67
2019-04-05T10:52:29.619Z,11.70
2019-04-05T10:53:29.605Z,11.76
2019-04-05T10:54:29.596Z,11.70
2019-04-05T10:55:29.639Z,11.76
2019-04-05T10:56:29.575Z,11.76
2019-04-05T10:57:29.572Z,11.65
2019-04-05T10:58:29.616Z,11.72
2019-04-05T10:59:29.554Z,11.61
2019-04-05T11:00:29.540Z,11.51
2019-04-05T11:01:29.548Z,11.42
2019-04-05T11:02:29.511Z,11.55
2019-04-05T11:03:29.505Z,11.51
2019-04-05T11:04:30.137Z,11.52
2019-04-05T11:05:29.485Z,11.49
2019-04-05T11:06:29.512Z,11.58
2019-04-05T11:07:29.469Z,11.72
2019-04-05T11:08:29.447Z,11.70
2019-04-05T11:09:29.438Z,11.82
2019-04-05T11:10:29.437Z,11.88
2019-04-05T11:11:29.435Z,11.90
2019-04-05T11:12:29.432Z,11.82
2019-04-05T11:13:29.381Z,11.76
2019-04-05T11:14:29.396Z,11.75
2019-04-05T11:15:31.017Z,11.82
2019-04-05T11:16:29.400Z,11.79
2019-04-05T11:17:29.358Z,11.88
2019-04-05T11:18:30.638Z,11.91
2019-04-05T11:19:30.282Z,11.76
2019-04-05T11:20:29.313Z,11.73
2019-04-05T11:21:29.301Z,11.94
2019-04-05T11:22:29.310Z,12.04
2019-04-05T11:23:29.289Z,12.10
2019-04-05T11:24:29.375Z,11.99
2019-04-05T11:25:29.317Z,12.04
2019-04-05T11:26:29.239Z,12.16
2019-04-05T11:27:29.287Z,12.17
2019-04-05T11:28:29.217Z,12.21
2019-04-05T11:29:29.205Z,12.24
2019-04-05T11:30:29.195Z,12.31
2019-04-05T11:31:29.198Z,12.59
2019-04-05T11:32:29.170Z,12.64
2019-04-05T11:33:29.163Z,12.70
2019-04-05T11:34:29.209Z,12.82
2019-04-05T11:35:29.145Z,12.90
2019-04-05T11:36:29.188Z,13.11
2019-04-05T11:37:29.119Z,13.11
2019-04-05T11:38:29.105Z,13.22
2019-04-05T11:39:29.106Z,13.12
2019-04-05T11:40:29.123Z,12.97
2019-04-05T11:41:29.074Z,12.92
2019-04-05T11:42:29.090Z,12.89
2019-04-05T11:43:31.208Z,12.77
2019-04-05T11:44:29.035Z,12.78
2019-04-05T11:45:29.043Z,12.78
2019-04-05T11:46:29.022Z,12.65
2019-04-05T11:47:29.628Z,12.65
2019-04-05T11:48:30.361Z,12.79
2019-04-05T11:49:28.982Z,12.89
2019-04-05T11:50:34.753Z,12.97
2019-04-05T11:51:29.965Z,12.86
2019-04-05T11:52:28.946Z,12.89
2019-04-05T11:53:28.962Z,12.95
2019-04-05T11:54:28.940Z,12.97
2019-04-05T11:55:28.920Z,13.10
2019-04-05T11:56:28.910Z,13.15
2019-04-05T11:57:28.894Z,13.22
2019-04-05T11:58:28.902Z,13.39
2019-04-05T11:59:28.869Z,13.46
2019-04-05T12:00:28.868Z,13.55
2019-04-05T12:01:28.857Z,13.60
2019-04-05T12:02:28.837Z,13.63
2019-04-05T12:03:28.860Z,13.70
2019-04-05T12:04:28.815Z,13.81
2019-04-05T12:05:28.799Z,13.87
2019-04-05T12:06:28.845Z,13.96
2019-04-05T12:07:28.778Z,13.84
2019-04-05T12:08:28.763Z,13.89
2019-04-05T12:09:28.770Z,14.02
2019-04-05T12:10:31.873Z,14.20
2019-04-05T12:11:28.729Z,14.24
2019-04-05T12:12:28.720Z,14.14
2019-04-05T12:13:28.715Z,14.18
2019-04-05T12:14:30.537Z,14.25
2019-04-05T12:15:28.683Z,14.32
2019-04-05T12:16:28.672Z,14.25
2019-04-05T12:17:28.668Z,14.33
2019-04-05T12:18:28.662Z,14.42
2019-04-05T12:19:28.781Z,14.50
2019-04-05T12:20:28.635Z,14.55
2019-04-05T12:21:28.617Z,14.65
2019-04-05T12:22:28.602Z,14.92
2019-04-05T12:23:32.452Z,14.94
2019-04-05T12:24:28.584Z,15.06
2019-04-05T12:25:28.599Z,15.19
2019-04-05T12:26:28.566Z,15.20
2019-04-05T12:27:28.549Z,15.27
2019-04-05T12:28:28.537Z,15.28
2019-04-05T12:29:28.526Z,15.19
2019-04-05T12:30:28.590Z,15.14
2019-04-05T12:31:28.505Z,15.03
2019-04-05T12:32:34.478Z,14.91
2019-04-05T12:33:29.490Z,14.83
2019-04-05T12:34:28.888Z,14.88
2019-04-05T12:35:28.465Z,14.73
2019-04-05T12:36:28.476Z,14.47
2019-04-05T12:37:28.434Z,14.46
2019-04-05T12:38:30.643Z,14.18
2019-04-05T12:39:28.419Z,14.20
2019-04-05T12:40:28.420Z,14.32
2019-04-05T12:41:28.428Z,14.51
2019-04-05T12:42:28.380Z,14.60
2019-04-05T12:43:28.373Z,14.61
2019-04-05T12:44:28.375Z,14.54
2019-04-05T12:45:28.397Z,14.72
2019-04-05T12:46:28.345Z,14.88
2019-04-05T12:47:28.334Z,14.92
2019-04-05T12:48:28.325Z,14.91
2019-04-05T12:49:28.347Z,14.99
2019-04-05T12:50:28.303Z,14.91
2019-04-05T12:51:28.338Z,14.84
2019-04-05T12:52:28.287Z,14.80
2019-04-05T12:53:28.275Z,14.95